createdAt,value
2024-03-05T00:01:15.522Z,90.20
2024-03-05T00:03:44.290Z,90.41
2024-03-05T00:06:12.462Z,90.69
2024-03-05T00:08:40.573Z,91.63
2024-03-05T00:11:08.916Z,90.95
2024-03-05T00:13:38.541Z,91.21
2024-03-05T00:16:07.087Z,91.23
2024-03-05T00:18:35.277Z,91.79
2024-03-05T00:21:03.378Z,93.18
2024-03-05T00:23:31.446Z,92.26
2024-03-05T00:25:59.541Z,94.48
2024-03-05T00:28:27.583Z,95.42
2024-03-05T00:30:56.980Z,94.36
2024-03-05T00:33:25.905Z,94.63
2024-03-05T00:35:54.318Z,95.87
2024-03-05T00:38:28.848Z,95.90
2024-03-05T00:41:02.066Z,95.81
2024-03-05T00:43:30.207Z,95.49
2024-03-05T00:45:59.740Z,94.54
2024-03-05T00:48:29.044Z,95.50
2024-03-05T00:50:57.101Z,95.32
2024-03-05T00:53:25.146Z,95.22
2024-03-05T00:55:53.193Z,94.50
2024-03-05T00:58:21.902Z,94.36
2024-03-05T01:00:50.171Z,93.76
2024-03-05T01:03:20.033Z,93.47
2024-03-05T01:05:48.238Z,94.60
2024-03-05T01:08:16.319Z,94.80
2024-03-05T01:10:46.753Z,94.69
2024-03-05T01:13:15.612Z,94.57
2024-03-05T01:15:43.794Z,95.42
2024-03-05T01:18:11.958Z,94.89
2024-03-05T01:20:42.917Z,94.81
2024-03-05T01:23:11.675Z,94.93
2024-03-05T01:25:39.912Z,94.62
2024-03-05T01:28:08.844Z,94.06
2024-03-05T01:30:37.993Z,93.79
2024-03-05T01:33:10.585Z,94.31
2024-03-05T01:35:39.419Z,94.66
2024-03-05T01:38:08.923Z,94.21
2024-03-05T01:40:37.004Z,94.34
2024-03-05T01:43:05.414Z,93.92
2024-03-05T01:45:33.469Z,92.88
2024-03-05T01:48:01.792Z,93.17
2024-03-05T01:50:30.494Z,93.59
2024-03-05T01:52:59.299Z,92.53
2024-03-05T01:55:28.797Z,93.14
2024-03-05T01:57:58.249Z,93.32
2024-03-05T02:00:27.291Z,93.14
2024-03-05T02:02:56.832Z,93.00
2024-03-05T02:05:25.137Z,92.77
2024-03-05T02:07:55.398Z,92.76
2024-03-05T02:10:23.561Z,92.48
2024-03-05T02:12:53.359Z,92.18
2024-03-05T02:15:22.185Z,91.50
2024-03-05T02:17:50.321Z,92.04
2024-03-05T02:20:18.518Z,91.79
2024-03-05T02:22:48.078Z,93.10
2024-03-05T02:25:18.666Z,93.11
2024-03-05T02:27:47.798Z,92.24
2024-03-05T02:30:16.739Z,92.69
2024-03-05T02:32:45.300Z,93.09
2024-03-05T02:35:13.455Z,92.68
2024-03-05T02:37:42.620Z,92.70
2024-03-05T02:40:14.599Z,91.95
2024-03-05T02:42:43.306Z,92.64
2024-03-05T02:45:14.167Z,91.78
2024-03-05T02:47:42.685Z,91.68
2024-03-05T02:50:11.922Z,91.08
2024-03-05T02:52:41.148Z,91.15
2024-03-05T02:55:11.006Z,91.19
2024-03-05T02:57:42.315Z,90.75
2024-03-05T03:00:14.714Z,90.81
2024-03-05T03:02:42.865Z,90.72
2024-03-05T03:05:11.312Z,90.75
2024-03-05T03:07:39.406Z,90.99
2024-03-05T03:10:07.909Z,91.37
2024-03-05T03:12:35.927Z,90.53
2024-03-05T03:15:08.230Z,90.42
2024-03-05T03:17:36.556Z,91.32
2024-03-05T03:20:05.138Z,90.79
2024-03-05T03:22:33.588Z,90.61
2024-03-05T03:25:01.612Z,91.50
2024-03-05T03:27:31.143Z,91.00
2024-03-05T03:29:59.831Z,90.73
2024-03-05T03:32:29.224Z,90.89
2024-03-05T03:34:57.391Z,90.98
2024-03-05T03:37:25.509Z,90.70
2024-03-05T03:39:53.605Z,91.20
2024-03-05T03:42:21.575Z,90.69
2024-03-05T03:44:49.613Z,91.62
2024-03-05T03:47:17.673Z,91.39
2024-03-05T03:49:49.384Z,91.48
2024-03-05T03:52:17.565Z,91.84
2024-03-05T03:54:45.621Z,91.81
2024-03-05T03:57:14.512Z,91.94
2024-03-05T03:59:42.821Z,91.56
2024-03-05T04:02:10.940Z,92.20
2024-03-05T04:04:39.077Z,92.53
2024-03-05T04:07:08.597Z,93.61
2024-03-05T04:09:36.619Z,93.70
2024-03-05T04:12:04.787Z,94.92
2024-03-05T04:14:32.758Z,94.54
2024-03-05T04:17:00.872Z,94.32
2024-03-05T04:19:29.627Z,94.05
2024-03-05T04:21:57.739Z,94.03
2024-03-05T04:24:27.237Z,93.68
2024-03-05T04:27:03.929Z,94.45
2024-03-05T04:29:32.065Z,93.88
2024-03-05T04:32:09.776Z,93.94
2024-03-05T04:34:40.812Z,94.60
2024-03-05T04:37:12.033Z,94.42
2024-03-05T04:39:44.008Z,94.10
2024-03-05T04:42:12.999Z,93.75
2024-03-05T04:44:43.764Z,93.35
2024-03-05T04:47:11.855Z,92.88
2024-03-05T04:49:39.973Z,93.59
2024-03-05T04:52:08.388Z,92.96
2024-03-05T04:54:36.484Z,93.87
2024-03-05T04:57:06.697Z,93.36
2024-03-05T04:59:34.998Z,94.34
2024-03-05T05:02:03.347Z,93.23
2024-03-05T05:04:31.679Z,94.33
2024-03-05T05:06:59.756Z,93.82
2024-03-05T05:09:27.795Z,94.57
2024-03-05T05:11:55.989Z,94.30
2024-03-05T05:14:25.402Z,94.26
2024-03-05T05:16:53.700Z,93.34
2024-03-05T05:19:21.860Z,93.11
2024-03-05T05:21:50.031Z,92.25
2024-03-05T05:24:18.067Z,92.63
2024-03-05T05:26:46.073Z,91.80
2024-03-05T05:29:20.583Z,92.07
2024-03-05T05:31:56.979Z,91.74
2024-03-05T05:34:25.000Z,90.89
2024-03-05T05:36:53.001Z,90.90
2024-03-05T05:39:25.440Z,90.67
2024-03-05T05:41:54.416Z,90.84
2024-03-05T05:44:22.667Z,90.94
2024-03-05T05:46:50.947Z,90.59
2024-03-05T05:49:22.063Z,91.10
2024-03-05T05:51:50.454Z,91.00
2024-03-05T05:54:22.573Z,90.88
2024-03-05T05:56:51.447Z,91.67
2024-03-05T05:59:20.005Z,91.61
2024-03-05T06:01:48.748Z,90.96
2024-03-05T06:04:17.774Z,91.79
2024-03-05T06:06:47.132Z,92.15
2024-03-05T06:09:23.198Z,92.40
2024-03-05T06:11:51.364Z,94.54
2024-03-05T06:14:20.301Z,95.35
2024-03-05T06:16:48.383Z,96.31
2024-03-05T06:19:16.493Z,96.81
2024-03-05T06:21:45.231Z,96.38
2024-03-05T06:24:14.835Z,97.81
2024-03-05T06:26:42.819Z,97.93
2024-03-05T06:29:12.964Z,97.14
2024-03-05T06:31:40.996Z,97.95
2024-03-05T06:34:12.209Z,97.37
2024-03-05T06:36:40.405Z,97.48
2024-03-05T06:39:10.175Z,96.59
2024-03-05T06:41:39.547Z,96.75
2024-03-05T06:44:12.300Z,96.05
2024-03-05T06:46:42.644Z,95.68
2024-03-05T06:49:16.162Z,96.00
2024-03-05T06:51:54.288Z,95.52
2024-03-05T06:54:40.243Z,95.92
2024-03-05T06:57:09.640Z,95.22
2024-03-05T06:59:37.836Z,95.26
2024-03-05T07:02:06.956Z,95.56
2024-03-05T07:04:36.280Z,95.75
2024-03-05T07:07:04.429Z,95.56
2024-03-05T07:09:33.120Z,95.19
2024-03-05T07:12:02.339Z,95.33
2024-03-05T07:14:33.209Z,95.79
2024-03-05T07:17:01.337Z,96.26
2024-03-05T07:19:29.488Z,97.49
2024-03-05T07:21:57.550Z,96.59
2024-03-05T07:24:25.527Z,96.72
2024-03-05T07:27:01.147Z,96.61
2024-03-05T07:29:37.647Z,97.34
2024-03-05T07:32:06.496Z,97.25
2024-03-05T07:34:36.262Z,98.00
2024-03-05T07:37:06.926Z,97.89
2024-03-05T07:39:34.947Z,98.28
2024-03-05T07:42:03.532Z,98.43
2024-03-05T07:44:32.876Z,98.34
2024-03-05T07:47:02.727Z,98.27
2024-03-05T07:49:30.841Z,98.28
2024-03-05T07:51:58.825Z,97.56
2024-03-05T07:54:26.823Z,97.29
2024-03-05T07:56:55.009Z,97.09
2024-03-05T07:59:23.067Z,97.50
2024-03-05T08:01:51.047Z,97.07
2024-03-05T08:04:20.511Z,96.54
2024-03-05T08:06:48.501Z,96.01
2024-03-05T08:09:16.626Z,95.64
2024-03-05T08:11:44.659Z,94.68
2024-03-05T08:14:12.779Z,94.58
2024-03-05T08:16:41.182Z,94.63
2024-03-05T08:19:09.581Z,94.20
2024-03-05T08:21:39.054Z,93.89
2024-03-05T08:24:09.473Z,93.62
2024-03-05T08:26:37.491Z,93.79
2024-03-05T08:29:05.623Z,92.30
2024-03-05T08:31:33.757Z,92.33
2024-03-05T08:34:05.320Z,90.89
2024-03-05T08:36:37.585Z,91.07
2024-03-05T08:39:18.628Z,90.57
2024-03-05T08:41:48.222Z,89.52
2024-03-05T08:44:17.734Z,88.79
2024-03-05T08:46:45.811Z,89.86
2024-03-05T08:49:13.818Z,89.19
2024-03-05T08:51:41.967Z,87.20
2024-03-05T08:54:12.651Z,85.79
2024-03-05T08:56:41.900Z,87.35
2024-03-05T08:59:10.364Z,87.39
2024-03-05T09:01:38.497Z,87.65
2024-03-05T09:04:07.388Z,85.28
2024-03-05T09:06:35.494Z,84.88
2024-03-05T09:09:03.541Z,84.79
2024-03-05T09:11:33.001Z,85.61
2024-03-05T09:14:01.137Z,86.04
2024-03-05T09:16:29.620Z,84.40
2024-03-05T09:18:57.664Z,83.41
2024-03-05T09:21:25.832Z,84.41
2024-03-05T09:23:53.827Z,84.47
2024-03-05T09:26:21.890Z,84.34
2024-03-05T09:28:51.327Z,82.77
2024-03-05T09:31:20.069Z,81.60
2024-03-05T09:33:48.158Z,82.69
2024-03-05T09:36:16.189Z,81.63
2024-03-05T09:38:44.321Z,81.31
2024-03-05T09:41:14.018Z,81.40
2024-03-05T09:43:43.188Z,80.40
2024-03-05T09:46:15.783Z,81.36
2024-03-05T09:48:43.811Z,81.21
2024-03-05T09:51:13.755Z,81.64
2024-03-05T09:53:40.787Z,80.63
2024-03-05T09:56:09.469Z,80.68
2024-03-05T09:58:40.352Z,80.17
2024-03-05T10:01:10.748Z,79.48
2024-03-05T10:03:40.696Z,79.83
2024-03-05T10:06:09.518Z,80.80
2024-03-05T10:08:37.560Z,79.65
2024-03-05T10:11:07.680Z,79.73
2024-03-05T10:13:37.965Z,79.00
2024-03-05T10:16:19.392Z,79.52
2024-03-05T10:18:51.029Z,77.40
2024-03-05T10:21:20.350Z,78.10
2024-03-05T10:23:49.658Z,76.37
2024-03-05T10:26:25.848Z,77.75
2024-03-05T10:28:54.446Z,76.79
2024-03-05T10:31:24.600Z,76.17
2024-03-05T10:33:55.456Z,75.69
2024-03-05T10:36:27.518Z,75.73
2024-03-05T10:38:55.567Z,75.30
2024-03-05T10:41:26.918Z,75.22
2024-03-05T10:43:58.499Z,74.56
2024-03-05T10:46:26.586Z,73.29
2024-03-05T10:48:56.217Z,74.35
2024-03-05T10:51:27.755Z,74.09
2024-03-05T10:53:56.046Z,73.17
2024-03-05T10:56:29.410Z,73.80
2024-03-05T10:59:24.103Z,74.90
2024-03-05T11:01:54.669Z,75.24
2024-03-05T11:04:25.022Z,75.62
2024-03-05T11:06:56.847Z,75.56
2024-03-05T11:09:25.354Z,75.51
2024-03-05T11:11:59.352Z,76.15
2024-03-05T11:14:28.420Z,76.58
2024-03-05T11:16:59.878Z,76.45
2024-03-05T11:19:29.408Z,76.85
2024-03-05T11:21:57.951Z,76.96
2024-03-05T11:24:25.977Z,76.11
2024-03-05T11:27:02.951Z,77.15
2024-03-05T11:29:42.746Z,77.20
2024-03-05T11:32:12.749Z,76.43
2024-03-05T11:34:49.012Z,77.83
2024-03-05T11:37:18.140Z,76.54
2024-03-05T11:39:46.395Z,76.02
2024-03-05T11:42:20.892Z,76.48
2024-03-05T11:44:56.013Z,76.79
2024-03-05T11:47:25.390Z,77.08
2024-03-05T11:49:54.907Z,76.35
2024-03-05T11:52:23.507Z,76.59
2024-03-05T11:55:00.248Z,77.51
2024-03-05T11:57:28.842Z,77.78
2024-03-05T11:59:56.934Z,76.47
2024-03-05T12:02:25.390Z,77.40
2024-03-05T12:04:55.069Z,77.03
2024-03-05T12:07:23.877Z,76.87
2024-03-05T12:09:57.336Z,76.29
2024-03-05T12:12:26.046Z,77.05
2024-03-05T12:14:55.729Z,76.89
2024-03-05T12:17:25.272Z,76.79
2024-03-05T12:20:09.171Z,75.94
2024-03-05T12:22:38.970Z,75.41
2024-03-05T12:25:09.432Z,74.97
2024-03-05T12:27:38.661Z,75.49
2024-03-05T12:30:08.872Z,74.90
2024-03-05T12:32:37.965Z,75.49
2024-03-05T12:35:08.205Z,75.46
2024-03-05T12:37:37.258Z,74.41
2024-03-05T12:40:08.835Z,74.96
2024-03-05T12:42:37.129Z,73.50
2024-03-05T12:45:09.389Z,74.01
2024-03-05T12:47:39.460Z,74.19
2024-03-05T12:50:10.812Z,74.11
2024-03-05T12:52:38.986Z,73.29
2024-03-05T12:55:08.597Z,72.96
2024-03-05T12:57:36.888Z,73.00
2024-03-05T13:00:11.751Z,71.74
2024-03-05T13:02:40.175Z,71.58
2024-03-05T13:05:10.394Z,72.72
2024-03-05T13:07:39.334Z,72.45
2024-03-05T13:10:12.614Z,72.01
2024-03-05T13:12:43.080Z,71.74
2024-03-05T13:15:12.142Z,73.14
2024-03-05T13:17:40.259Z,72.65
2024-03-05T13:20:19.717Z,73.30
2024-03-05T13:22:48.208Z,73.85
2024-03-05T13:25:16.813Z,73.53
2024-03-05T13:27:44.993Z,72.86
2024-03-05T13:30:16.002Z,73.83
2024-03-05T13:32:44.499Z,72.19
2024-03-05T13:35:15.342Z,73.47
2024-03-05T13:37:43.991Z,73.18
2024-03-05T13:40:14.086Z,72.61
2024-03-05T13:42:42.230Z,71.73
2024-03-05T13:45:13.650Z,71.70
2024-03-05T13:47:42.100Z,72.11
2024-03-05T13:50:11.854Z,72.84
2024-03-05T13:52:43.530Z,72.99
2024-03-05T13:55:13.008Z,73.50
2024-03-05T13:57:41.572Z,72.20
2024-03-05T14:00:15.050Z,71.74
2024-03-05T14:02:43.110Z,71.78
2024-03-05T14:05:12.413Z,71.45
2024-03-05T14:07:41.907Z,71.43
2024-03-05T14:10:12.455Z,71.16
2024-03-05T14:12:41.785Z,71.74
2024-03-05T14:15:21.855Z,72.07
2024-03-05T14:17:51.337Z,71.84
2024-03-05T14:20:28.941Z,72.07
2024-03-05T14:23:00.466Z,71.45
2024-03-05T14:25:28.802Z,71.15
2024-03-05T14:27:56.838Z,72.69
2024-03-05T14:30:27.047Z,71.13
2024-03-05T14:32:59.072Z,71.81
2024-03-05T14:35:27.105Z,71.12
2024-03-05T14:37:55.689Z,70.44
2024-03-05T14:40:25.899Z,70.57
2024-03-05T14:42:53.971Z,70.66
2024-03-05T14:45:23.575Z,71.35
2024-03-05T14:47:51.639Z,71.12
2024-03-05T14:50:20.573Z,71.42
2024-03-05T14:52:48.698Z,71.59
2024-03-05T14:55:16.882Z,70.76
2024-03-05T14:57:46.807Z,71.48
2024-03-05T15:00:17.150Z,71.32
2024-03-05T15:02:47.372Z,70.92
2024-03-05T15:05:15.887Z,71.46
2024-03-05T15:07:45.020Z,72.29
2024-03-05T15:10:14.508Z,72.00
2024-03-05T15:12:44.832Z,72.38
2024-03-05T15:15:14.790Z,72.45
2024-03-05T15:17:42.994Z,72.22
2024-03-05T15:20:12.891Z,72.60
2024-03-05T15:22:41.669Z,72.84
2024-03-05T15:25:11.122Z,72.55
2024-03-05T15:27:40.493Z,71.78
2024-03-05T15:30:14.709Z,72.50
2024-03-05T15:32:48.713Z,72.41
2024-03-05T15:35:18.030Z,72.27
2024-03-05T15:37:47.095Z,72.57
2024-03-05T15:40:19.681Z,72.71
2024-03-05T15:42:48.680Z,73.66
2024-03-05T15:45:16.662Z,73.93
2024-03-05T15:47:45.885Z,74.38
2024-03-05T15:50:19.072Z,74.68
2024-03-05T15:52:48.802Z,74.87
2024-03-05T15:55:18.365Z,74.16
2024-03-05T15:57:58.199Z,74.34
2024-03-05T16:00:36.413Z,75.07
2024-03-05T16:03:06.644Z,75.40
2024-03-05T16:05:43.450Z,76.40
2024-03-05T16:08:22.165Z,76.29
2024-03-05T16:10:51.916Z,77.19
2024-03-05T16:13:19.992Z,77.33
2024-03-05T16:15:48.230Z,76.70
2024-03-05T16:18:17.199Z,76.72
2024-03-05T16:20:47.440Z,75.80
2024-03-05T16:23:15.762Z,76.73
2024-03-05T16:25:43.862Z,76.59
2024-03-05T16:28:12.434Z,76.44
2024-03-05T16:30:40.939Z,76.40
2024-03-05T16:33:09.068Z,76.10
2024-03-05T16:35:42.269Z,76.94
2024-03-05T16:38:15.219Z,76.23
2024-03-05T16:40:43.697Z,76.24
2024-03-05T16:45:41.317Z,76.21
2024-03-05T16:48:11.042Z,76.62
2024-03-05T16:50:40.321Z,76.75
2024-03-05T16:53:09.942Z,76.34
2024-03-05T16:55:40.691Z,76.91
2024-03-05T16:58:12.658Z,78.16
2024-03-05T17:00:48.809Z,78.52
2024-03-05T17:03:19.931Z,78.80
2024-03-05T17:05:51.861Z,80.09
2024-03-05T17:08:22.078Z,83.25
2024-03-05T17:10:52.313Z,85.00
2024-03-05T17:13:23.027Z,87.05
2024-03-05T17:15:56.352Z,86.81
2024-03-05T17:18:25.382Z,89.26
2024-03-05T17:20:54.994Z,90.01
2024-03-05T17:23:26.685Z,91.04
2024-03-05T17:25:57.864Z,91.26
2024-03-05T17:28:27.602Z,91.34
2024-03-05T17:30:57.085Z,92.86
2024-03-05T17:33:25.791Z,92.11
2024-03-05T17:35:56.494Z,91.08
2024-03-05T17:38:26.292Z,91.60
2024-03-05T17:40:56.779Z,91.29
2024-03-05T17:43:25.051Z,91.14
2024-03-05T17:45:54.227Z,91.03
2024-03-05T17:48:22.714Z,92.90
2024-03-05T17:50:50.729Z,92.89
2024-03-05T17:53:18.920Z,94.50
2024-03-05T17:55:47.157Z,94.39
2024-03-05T17:58:17.575Z,94.72
2024-03-05T18:00:47.002Z,94.29
2024-03-05T18:03:16.367Z,93.98
2024-03-05T18:05:46.285Z,94.39
2024-03-05T18:08:14.812Z,94.70
2024-03-05T18:10:43.544Z,94.30
2024-03-05T18:13:11.916Z,94.39
2024-03-05T18:15:41.457Z,94.94
2024-03-05T18:18:09.555Z,94.36
2024-03-05T18:20:37.613Z,94.52
2024-03-05T18:23:07.183Z,93.97
2024-03-05T18:25:36.699Z,93.25
2024-03-05T18:28:06.684Z,93.03
2024-03-05T18:30:36.786Z,93.03
2024-03-05T18:33:08.886Z,93.04
2024-03-05T18:35:38.872Z,93.43
2024-03-05T18:38:20.146Z,94.34
2024-03-05T18:40:57.899Z,93.78
2024-03-05T18:43:28.445Z,93.12
2024-03-05T18:45:57.261Z,93.51
2024-03-05T18:48:26.778Z,92.71
2024-03-05T18:50:54.819Z,92.24
2024-03-05T18:53:31.900Z,92.19
2024-03-05T18:56:07.942Z,92.41
2024-03-05T18:58:36.267Z,93.19
2024-03-05T19:01:04.368Z,92.37
2024-03-05T19:03:33.844Z,92.77
2024-03-05T19:06:01.834Z,92.12
2024-03-05T19:08:30.381Z,92.83
2024-03-05T19:10:58.497Z,92.02
2024-03-05T19:13:26.630Z,92.46
2024-03-05T19:15:54.756Z,91.96
2024-03-05T19:18:22.840Z,93.13
2024-03-05T19:20:52.324Z,93.15
2024-03-05T19:23:20.578Z,93.50
2024-03-05T19:25:48.749Z,95.60
2024-03-05T19:28:16.872Z,95.96
2024-03-05T19:30:45.001Z,96.88
2024-03-05T19:33:13.135Z,96.70
2024-03-05T19:35:41.418Z,95.70
2024-03-05T19:38:11.094Z,95.43
2024-03-05T19:40:39.193Z,95.36
2024-03-05T19:43:10.127Z,94.82
2024-03-05T19:45:38.119Z,94.58
2024-03-05T19:48:07.035Z,94.40
2024-03-05T19:50:36.213Z,93.79
2024-03-05T19:53:04.740Z,93.32
2024-03-05T19:55:34.863Z,93.57
2024-03-05T19:58:03.178Z,93.65
2024-03-05T20:00:31.307Z,92.38
2024-03-05T20:03:00.348Z,92.70
2024-03-05T20:05:28.657Z,92.06
2024-03-05T20:07:56.813Z,91.66
2024-03-05T20:10:26.353Z,92.08
2024-03-05T20:12:57.516Z,91.79
2024-03-05T20:15:25.883Z,92.20
2024-03-05T20:17:55.442Z,92.69
2024-03-05T20:20:23.932Z,92.66
2024-03-05T20:22:52.237Z,93.50
2024-03-05T20:25:22.673Z,93.85
2024-03-05T20:27:52.336Z,93.28
2024-03-05T20:30:23.668Z,92.89
2024-03-05T20:32:52.628Z,93.70
2024-03-05T20:35:21.358Z,93.66
2024-03-05T20:37:51.916Z,93.19
2024-03-05T20:40:21.987Z,92.95
2024-03-05T20:42:50.153Z,93.73
2024-03-05T20:45:19.696Z,93.90
2024-03-05T20:47:49.816Z,92.94
2024-03-05T20:50:19.165Z,92.69
2024-03-05T20:52:47.389Z,92.46
2024-03-05T20:55:15.631Z,92.49
2024-03-05T20:57:47.008Z,92.10
2024-03-05T21:00:19.942Z,92.12
2024-03-05T21:02:52.910Z,91.86
2024-03-05T21:05:21.114Z,91.64
2024-03-05T21:07:54.919Z,91.81
2024-03-05T21:10:23.509Z,91.10
2024-03-05T21:12:51.841Z,91.09
2024-03-05T21:15:21.372Z,91.41
2024-03-05T21:17:51.908Z,90.96
2024-03-05T21:20:20.647Z,91.11
2024-03-05T21:22:49.525Z,90.69
2024-03-05T21:25:18.920Z,90.24
2024-03-05T21:27:47.049Z,90.67
2024-03-05T21:30:15.286Z,90.93
2024-03-05T21:32:43.831Z,91.02
2024-03-05T21:35:13.422Z,91.41
2024-03-05T21:37:42.583Z,91.00
2024-03-05T21:40:14.340Z,91.15
2024-03-05T21:42:45.382Z,91.51
2024-03-05T21:45:16.168Z,91.02
2024-03-05T21:47:45.883Z,90.89
2024-03-05T21:50:15.622Z,91.66
2024-03-05T21:52:46.357Z,92.60
2024-03-05T21:55:16.582Z,92.41
2024-03-05T21:57:44.973Z,91.76
2024-03-05T22:00:15.433Z,92.27
2024-03-05T22:02:44.213Z,91.58
2024-03-05T22:05:13.589Z,91.46
2024-03-05T22:07:43.244Z,92.59
2024-03-05T22:10:12.994Z,93.61
2024-03-05T22:12:41.805Z,92.71
2024-03-05T22:15:11.086Z,92.59
2024-03-05T22:17:39.819Z,93.62
2024-03-05T22:20:10.307Z,95.02
2024-03-05T22:22:40.070Z,94.48
2024-03-05T22:25:10.198Z,94.15
2024-03-05T22:27:38.265Z,93.59
2024-03-05T22:30:08.757Z,92.53
2024-03-05T22:32:37.501Z,92.77
2024-03-05T22:35:11.360Z,92.43
2024-03-05T22:37:41.100Z,93.19
2024-03-05T22:40:13.253Z,92.26
2024-03-05T22:42:41.346Z,92.79
2024-03-05T22:45:11.409Z,92.53
2024-03-05T22:47:39.940Z,93.22
2024-03-05T22:50:10.499Z,92.78
2024-03-05T22:52:38.876Z,92.56
2024-03-05T22:55:07.479Z,92.13
2024-03-05T22:57:37.229Z,92.87
2024-03-05T23:00:14.106Z,92.49
2024-03-05T23:02:42.331Z,92.89
2024-03-05T23:05:11.444Z,92.57
2024-03-05T23:07:39.690Z,93.61
2024-03-05T23:10:10.028Z,92.63
2024-03-05T23:12:39.413Z,93.27
2024-03-05T23:15:08.056Z,93.06
2024-03-05T23:17:36.082Z,92.79
2024-03-05T23:20:09.201Z,92.94
2024-03-05T23:22:37.399Z,92.82
2024-03-05T23:25:07.479Z,93.39
2024-03-05T23:27:35.711Z,93.56
2024-03-05T23:30:07.369Z,92.66
2024-03-05T23:32:35.438Z,93.46
2024-03-05T23:35:04.321Z,93.42
2024-03-05T23:37:32.373Z,93.06
2024-03-05T23:40:00.479Z,92.76
2024-03-05T23:42:28.818Z,92.61
2024-03-05T23:44:56.845Z,93.05
2024-03-05T23:47:26.475Z,92.29
2024-03-05T23:49:54.948Z,92.64
2024-03-05T23:52:23.112Z,92.17
2024-03-05T23:54:51.095Z,92.74
2024-03-05T23:57:19.171Z,92.66
2024-03-05T23:59:47.223Z,92.85
